sim
Sign-in with your pilot id or email,
or register
Callsign
Passwort

Schedule Details

Flight Number: EWG5709 (2)
Departure: Pristina Adem Jashari International Airport (BKPR) at 13:20
Arrival: Munich Airport (EDDM) at 15:15
Route: Eurowings Passenger Schedule. Enter filed route here before submitting Pirep.

Weather Information
Getting current METAR information for BKPR 220430Z 00000KT CAVOK 10/06 Q1020 NOSIG
Getting current METAR information for EDDM 220420Z VRB02KT 2000 1000N R08L/0750V1300N R08R/P2000N BCFG FEW002 08/08 Q1014 TEMPO 1200

Schedule Frequency

Route Map